createdAt,value
2022-11-17T00:00:51.887Z,9.457193
2022-11-17T00:01:51.922Z,9.457179
2022-11-17T00:02:51.897Z,9.457216
2022-11-17T00:03:51.852Z,9.457007
2022-11-17T00:04:51.839Z,9.457077
2022-11-17T00:05:51.830Z,9.456924
2022-11-17T00:06:51.881Z,9.456909
2022-11-17T00:07:51.813Z,9.457014
2022-11-17T00:08:51.798Z,9.456689
2022-11-17T00:09:51.776Z,9.457155
2022-11-17T00:10:51.766Z,9.457214
2022-11-17T00:11:51.778Z,9.457434
2022-11-17T00:12:51.745Z,9.457051
2022-11-17T00:13:51.738Z,9.456990
2022-11-17T00:14:51.744Z,9.456834
2022-11-17T00:15:51.712Z,9.457146
2022-11-17T00:16:51.725Z,9.457279
2022-11-17T00:17:51.691Z,9.457445
2022-11-17T00:18:51.674Z,9.457861
2022-11-17T00:19:51.665Z,9.457415
2022-11-17T00:20:51.658Z,9.457256
2022-11-17T00:21:51.663Z,9.457102
2022-11-17T00:22:51.620Z,9.457161
2022-11-17T00:23:51.710Z,9.457290
2022-11-17T00:24:51.621Z,9.457232
2022-11-17T00:25:51.600Z,9.456990
2022-11-17T00:26:51.601Z,9.457181
2022-11-17T00:27:51.580Z,9.457053
2022-11-17T00:28:51.577Z,9.457217
2022-11-17T00:29:51.562Z,9.457110
2022-11-17T00:30:51.542Z,9.457219
2022-11-17T00:31:51.565Z,9.457352
2022-11-17T00:32:51.533Z,9.457440
2022-11-17T00:33:51.525Z,9.457405
2022-11-17T00:34:51.495Z,9.457295
2022-11-17T00:35:51.501Z,9.457350
2022-11-17T00:36:51.508Z,9.457245
2022-11-17T00:37:51.490Z,9.457187
2022-11-17T00:38:51.451Z,9.457280
2022-11-17T00:39:55.210Z,9.457338
2022-11-17T00:40:52.448Z,9.457388
2022-11-17T00:41:51.440Z,9.457430
2022-11-17T00:42:51.424Z,9.457274
2022-11-17T00:43:51.399Z,9.457206
2022-11-17T00:44:52.398Z,9.457225
2022-11-17T00:45:51.389Z,9.457150
2022-11-17T00:46:51.404Z,9.457180
2022-11-17T00:47:51.360Z,9.457219
2022-11-17T00:48:51.386Z,9.457380
2022-11-17T00:49:51.348Z,9.457318
2022-11-17T00:50:51.361Z,9.457396
2022-11-17T00:51:51.344Z,9.457706
2022-11-17T00:52:51.337Z,9.457387
2022-11-17T00:53:51.335Z,9.457188
2022-11-17T00:54:51.339Z,9.457235
2022-11-17T00:55:51.422Z,9.457185
2022-11-17T00:56:51.277Z,9.457218
2022-11-17T00:57:52.312Z,9.457223
2022-11-17T00:58:51.248Z,9.457147
2022-11-17T00:59:51.238Z,9.457151
2022-11-17T01:00:51.233Z,9.457153
2022-11-17T01:01:51.305Z,9.457195
2022-11-17T01:02:51.208Z,9.457246
2022-11-17T01:03:51.196Z,9.457208
2022-11-17T01:04:51.189Z,9.457090
2022-11-17T01:05:51.172Z,9.457220
2022-11-17T01:06:51.256Z,9.457298
2022-11-17T01:07:51.163Z,9.457285
2022-11-17T01:08:51.193Z,9.457251
2022-11-17T01:09:51.174Z,9.457234
2022-11-17T01:10:51.179Z,9.457232
2022-11-17T01:11:51.323Z,9.457257
2022-11-17T01:12:51.827Z,9.457196
2022-11-17T01:13:51.810Z,9.457154
2022-11-17T01:14:51.169Z,9.457070
2022-11-17T01:15:51.141Z,9.457164
2022-11-17T01:16:51.168Z,9.457183
2022-11-17T01:17:51.049Z,9.457216
2022-11-17T01:18:51.826Z,9.457318
2022-11-17T01:19:51.157Z,9.457264
2022-11-17T01:20:51.023Z,9.457200
2022-11-17T01:21:51.148Z,9.457230
2022-11-17T01:22:50.993Z,9.457387
2022-11-17T01:23:50.977Z,9.457322
2022-11-17T01:24:50.980Z,9.457232
2022-11-17T01:25:50.971Z,9.457233
2022-11-17T01:26:51.007Z,9.457236
2022-11-17T01:27:51.021Z,9.457185
2022-11-17T01:28:50.934Z,9.457229
2022-11-17T01:29:50.929Z,9.457340
2022-11-17T01:30:50.906Z,9.457128
2022-11-17T01:31:50.921Z,9.457192
2022-11-17T01:32:50.886Z,9.457199
2022-11-17T01:33:50.866Z,9.457302
2022-11-17T01:34:50.864Z,9.457312
2022-11-17T01:35:50.854Z,9.457141
2022-11-17T01:36:50.861Z,9.457095
2022-11-17T01:37:50.828Z,9.457142
2022-11-17T01:38:50.816Z,9.456941
2022-11-17T01:39:50.804Z,9.456980
2022-11-17T01:40:50.801Z,9.457250
2022-11-17T01:41:50.833Z,9.457444
2022-11-17T01:42:50.779Z,9.457285
2022-11-17T01:43:50.851Z,9.457210
2022-11-17T01:44:50.760Z,9.457345
2022-11-17T01:45:50.775Z,9.457370
2022-11-17T01:46:50.744Z,9.457417
2022-11-17T01:47:50.721Z,9.457317
2022-11-17T01:48:50.714Z,9.457402
2022-11-17T01:49:50.707Z,9.457348
2022-11-17T01:50:50.694Z,9.457459
2022-11-17T01:51:50.705Z,9.457261
2022-11-17T01:52:50.701Z,9.457231
2022-11-17T01:53:50.664Z,9.457316
2022-11-17T01:54:50.648Z,9.457292
2022-11-17T01:55:50.646Z,9.457270
2022-11-17T01:56:50.654Z,9.457210
2022-11-17T01:57:50.620Z,9.457335
2022-11-17T01:58:50.604Z,9.457312
2022-11-17T01:59:50.679Z,9.457278
2022-11-17T02:00:50.598Z,9.457218
2022-11-17T02:01:50.641Z,9.457285
2022-11-17T02:02:50.568Z,9.457189
2022-11-17T02:03:50.566Z,9.457212
2022-11-17T02:04:50.549Z,9.457244
2022-11-17T02:05:50.546Z,9.457333
2022-11-17T02:06:50.599Z,9.457218
2022-11-17T02:07:50.528Z,9.457325
2022-11-17T02:08:50.510Z,9.457291
2022-11-17T02:09:50.549Z,9.456972
2022-11-17T02:10:51.918Z,9.457060
2022-11-17T02:11:50.627Z,9.456922
2022-11-17T02:12:50.556Z,9.456877
2022-11-17T02:13:50.546Z,9.457148
2022-11-17T02:14:50.511Z,9.457270
2022-11-17T02:15:50.560Z,9.457353
2022-11-17T02:16:51.301Z,9.457330
2022-11-17T02:17:50.494Z,9.457250
2022-11-17T02:18:50.388Z,9.457191
2022-11-17T02:19:50.386Z,9.457239
2022-11-17T02:20:50.383Z,9.457231
2022-11-17T02:21:50.390Z,9.457246
2022-11-17T02:22:50.351Z,9.457201
2022-11-17T02:23:50.342Z,9.457183
2022-11-17T02:24:50.342Z,9.457193
2022-11-17T02:25:50.335Z,9.457204
2022-11-17T02:26:50.341Z,9.457204
2022-11-17T02:27:50.308Z,9.457222
2022-11-17T02:28:50.296Z,9.457223
2022-11-17T02:29:50.292Z,9.457138
2022-11-17T02:30:50.290Z,9.457260
2022-11-17T02:31:50.361Z,9.457238
2022-11-17T02:32:50.278Z,9.457197
2022-11-17T02:33:50.259Z,9.457218
2022-11-17T02:34:50.247Z,9.457108
2022-11-17T02:35:50.232Z,9.457155
2022-11-17T02:36:50.212Z,9.457053
2022-11-17T02:37:50.248Z,9.457184
2022-11-17T02:38:50.197Z,9.457288
2022-11-17T02:39:50.190Z,9.457272
2022-11-17T02:40:50.178Z,9.457297
2022-11-17T02:41:50.175Z,9.457304
2022-11-17T02:42:50.165Z,9.457320
2022-11-17T02:43:50.148Z,9.457248
2022-11-17T02:44:50.137Z,9.457318
2022-11-17T02:45:50.122Z,9.457271
2022-11-17T02:46:50.107Z,9.457136
2022-11-17T02:47:50.216Z,9.457233
2022-11-17T02:48:50.085Z,9.457123
2022-11-17T02:49:50.080Z,9.457131
2022-11-17T02:50:50.090Z,9.457267
2022-11-17T02:51:50.051Z,9.457227
2022-11-17T02:52:50.092Z,9.457125
2022-11-17T02:53:50.033Z,9.457186
2022-11-17T02:54:50.032Z,9.457155
2022-11-17T02:55:50.022Z,9.457088
2022-11-17T02:56:50.047Z,9.457204
2022-11-17T02:57:50.013Z,9.457277
2022-11-17T02:58:49.982Z,9.457261
2022-11-17T02:59:49.979Z,9.457192
2022-11-17T03:00:49.968Z,9.457219
2022-11-17T03:01:50.008Z,9.457259
2022-11-17T03:02:49.966Z,9.457232
2022-11-17T03:03:49.939Z,9.457230
2022-11-17T03:04:49.930Z,9.457186
2022-11-17T03:05:49.911Z,9.457200
2022-11-17T03:06:49.936Z,9.457157
2022-11-17T03:07:49.910Z,9.457206
2022-11-17T03:08:49.888Z,9.457247
2022-11-17T03:09:49.871Z,9.457254
2022-11-17T03:10:49.860Z,9.457280
2022-11-17T03:11:49.893Z,9.457208
2022-11-17T03:12:49.860Z,9.457169
2022-11-17T03:13:49.835Z,9.457206
2022-11-17T03:14:49.811Z,9.457216
2022-11-17T03:15:49.820Z,9.457248
2022-11-17T03:16:49.801Z,9.457272
2022-11-17T03:17:49.811Z,9.457243
2022-11-17T03:18:49.777Z,9.457234
2022-11-17T03:19:49.845Z,9.457103
2022-11-17T03:20:49.769Z,9.457031
2022-11-17T03:21:49.750Z,9.457158
2022-11-17T03:22:49.750Z,9.457151
2022-11-17T03:23:49.733Z,9.457225
2022-11-17T03:24:49.717Z,9.457294
2022-11-17T03:25:49.706Z,9.457220
2022-11-17T03:26:49.700Z,9.457183
2022-11-17T03:27:49.706Z,9.457211
2022-11-17T03:28:49.676Z,9.457062
2022-11-17T03:29:49.661Z,9.457001
2022-11-17T03:30:49.647Z,9.457101
2022-11-17T03:31:49.646Z,9.457149
2022-11-17T03:32:49.665Z,9.457088
2022-11-17T03:33:49.627Z,9.456912
2022-11-17T03:34:49.611Z,9.457083
2022-11-17T03:35:50.849Z,9.457068
2022-11-17T03:36:50.597Z,9.457382
2022-11-17T03:37:49.603Z,9.457172
2022-11-17T03:38:49.572Z,9.456902
2022-11-17T03:39:49.566Z,9.456871
2022-11-17T03:40:49.557Z,9.457019
2022-11-17T03:41:49.547Z,9.457069
2022-11-17T03:42:49.543Z,9.457161
2022-11-17T03:43:49.526Z,9.457171
2022-11-17T03:44:49.508Z,9.457073
2022-11-17T03:45:49.500Z,9.457179
2022-11-17T03:46:49.492Z,9.457224
2022-11-17T03:47:49.498Z,9.457238
2022-11-17T03:48:49.472Z,9.457108
2022-11-17T03:49:49.455Z,9.457131
2022-11-17T03:50:49.455Z,9.457224
2022-11-17T03:51:49.442Z,9.457224
2022-11-17T03:52:49.454Z,9.457209
2022-11-17T03:53:49.417Z,9.457228
2022-11-17T03:54:49.413Z,9.457185
2022-11-17T03:55:49.403Z,9.457273
2022-11-17T03:56:49.382Z,9.457389
2022-11-17T03:57:49.400Z,9.457397
2022-11-17T03:58:49.372Z,9.457248
2022-11-17T03:59:49.370Z,9.457309
2022-11-17T04:00:49.353Z,9.457264
2022-11-17T04:01:49.374Z,9.457308
2022-11-17T04:02:49.349Z,9.457253
2022-11-17T04:03:49.320Z,9.457388
2022-11-17T04:04:49.315Z,9.457404
2022-11-17T04:05:49.299Z,9.457403
2022-11-17T04:06:49.354Z,9.457360
2022-11-17T04:07:49.298Z,9.457228
2022-11-17T04:08:49.275Z,9.457232
2022-11-17T04:09:49.247Z,9.457211
2022-11-17T04:10:49.242Z,9.457367
2022-11-17T04:11:49.245Z,9.457240
2022-11-17T04:12:49.258Z,9.457145
2022-11-17T04:13:49.207Z,9.457170
2022-11-17T04:14:49.205Z,9.457224
2022-11-17T04:15:49.198Z,9.457363
2022-11-17T04:16:49.188Z,9.457304
2022-11-17T04:17:49.194Z,9.457366
2022-11-17T04:18:49.166Z,9.457660
2022-11-17T04:19:49.154Z,9.457209
2022-11-17T04:20:49.147Z,9.457186
2022-11-17T04:21:49.134Z,9.457215
2022-11-17T04:22:49.148Z,9.457153
2022-11-17T04:23:49.130Z,9.457212
2022-11-17T04:24:49.106Z,9.457172
2022-11-17T04:25:49.088Z,9.457261
2022-11-17T04:26:49.086Z,9.457204
2022-11-17T04:27:49.092Z,9.457186
2022-11-17T04:28:49.059Z,9.457271
2022-11-17T04:29:49.053Z,9.457293
2022-11-17T04:30:49.043Z,9.457186
2022-11-17T04:31:49.066Z,9.457253
2022-11-17T04:32:49.042Z,9.457333
2022-11-17T04:33:49.005Z,9.457253
2022-11-17T04:34:49.002Z,9.457098
2022-11-17T04:35:48.997Z,9.457253
2022-11-17T04:36:48.980Z,9.457273
2022-11-17T04:37:49.014Z,9.457240
2022-11-17T04:38:48.961Z,9.457294
2022-11-17T04:39:48.961Z,9.457199
2022-11-17T04:40:48.949Z,9.457079
2022-11-17T04:41:48.938Z,9.457148
2022-11-17T04:42:48.978Z,9.457127
2022-11-17T04:43:48.920Z,9.457213
2022-11-17T04:44:48.903Z,9.457209
2022-11-17T04:45:48.889Z,9.457237
2022-11-17T04:46:48.878Z,9.457229
2022-11-17T04:47:48.882Z,9.457306
2022-11-17T04:48:48.861Z,9.457142
2022-11-17T04:49:48.842Z,9.457189
2022-11-17T04:50:48.833Z,9.457207
2022-11-17T04:51:48.837Z,9.457159
2022-11-17T04:52:48.837Z,9.457137
2022-11-17T04:53:48.799Z,9.457096
2022-11-17T04:54:48.802Z,9.457180
2022-11-17T04:55:48.872Z,9.457232
2022-11-17T04:56:48.780Z,9.457282
2022-11-17T04:57:48.788Z,9.457280
2022-11-17T04:58:48.759Z,9.457183
2022-11-17T04:59:48.749Z,9.457158
2022-11-17T05:00:48.746Z,9.457192
2022-11-17T05:01:48.768Z,9.457253
2022-11-17T05:02:48.735Z,9.457305
2022-11-17T05:03:48.709Z,9.457240
2022-11-17T05:04:48.698Z,9.457183
2022-11-17T05:05:48.691Z,9.457272
2022-11-17T05:06:48.677Z,9.457240
2022-11-17T05:07:48.684Z,9.457216
2022-11-17T05:08:48.662Z,9.457109
2022-11-17T05:09:48.657Z,9.457151
2022-11-17T05:10:48.668Z,9.457281
2022-11-17T05:11:48.720Z,9.457214
2022-11-17T05:12:48.640Z,9.457211
2022-11-17T05:13:48.632Z,9.457311
2022-11-17T05:14:48.622Z,9.457273
2022-11-17T05:15:48.593Z,9.457275
2022-11-17T05:16:48.576Z,9.457355
2022-11-17T05:17:48.600Z,9.457287
2022-11-17T05:18:48.557Z,9.457203
2022-11-17T05:19:48.562Z,9.457093
2022-11-17T05:20:48.542Z,9.457136
2022-11-17T05:21:48.559Z,9.457108
2022-11-17T05:22:48.572Z,9.457127
2022-11-17T05:23:48.509Z,9.457117
2022-11-17T05:24:48.502Z,9.457157
2022-11-17T05:25:48.493Z,9.457126
2022-11-17T05:26:48.483Z,9.457040
2022-11-17T05:27:48.572Z,9.457207
2022-11-17T05:28:48.461Z,9.457299
2022-11-17T05:29:48.451Z,9.457218
2022-11-17T05:30:48.439Z,9.457329
2022-11-17T05:31:48.434Z,9.457219
2022-11-17T05:32:48.442Z,9.457443
2022-11-17T05:33:48.405Z,9.457241
2022-11-17T05:34:48.405Z,9.457250
2022-11-17T05:35:48.395Z,9.457158
2022-11-17T05:36:48.381Z,9.457257
2022-11-17T05:37:48.369Z,9.457180
2022-11-17T05:38:48.393Z,9.457129
2022-11-17T05:39:48.347Z,9.457098
2022-11-17T05:40:48.342Z,9.457177
2022-11-17T05:41:48.334Z,9.457179
2022-11-17T05:42:50.724Z,9.457225
2022-11-17T05:43:48.324Z,9.457131
2022-11-17T05:44:48.315Z,9.457327
2022-11-17T05:45:48.293Z,9.457264
2022-11-17T05:46:48.285Z,9.457309
2022-11-17T05:47:48.271Z,9.457204
2022-11-17T05:48:48.286Z,9.457179
2022-11-17T05:49:48.249Z,9.457232
2022-11-17T05:50:48.242Z,9.457388
2022-11-17T05:51:52.445Z,9.457235
2022-11-17T05:52:49.227Z,9.457205
2022-11-17T05:53:48.232Z,9.457173
2022-11-17T05:54:48.190Z,9.457226
2022-11-17T05:55:48.188Z,9.457246
2022-11-17T05:56:48.185Z,9.457181
2022-11-17T05:57:48.174Z,9.457146
2022-11-17T05:58:48.174Z,9.457266
2022-11-17T05:59:48.234Z,9.457235
2022-11-17T06:00:48.148Z,9.457149
2022-11-17T06:01:48.137Z,9.457103
2022-11-17T06:02:48.110Z,9.457145
2022-11-17T06:03:48.202Z,9.457210
2022-11-17T06:20:07.813Z,9.457381
2022-11-17T06:21:07.803Z,9.456984
2022-11-17T06:22:12.788Z,9.457480
2022-11-17T06:23:09.798Z,9.457416
2022-11-17T06:24:07.768Z,9.457463
2022-11-17T06:25:07.756Z,9.457182
2022-11-17T06:26:07.743Z,9.457379
2022-11-17T06:27:07.725Z,9.457204
2022-11-17T06:28:08.743Z,9.457306
2022-11-17T06:29:07.727Z,9.457491
2022-11-17T06:30:07.703Z,9.457668
2022-11-17T06:31:07.773Z,9.457382
2022-11-17T06:32:07.683Z,9.457304
2022-11-17T06:33:07.690Z,9.457293
2022-11-17T06:34:07.651Z,9.457194
2022-11-17T06:35:07.651Z,9.457265
2022-11-17T06:36:07.638Z,9.457254
2022-11-17T06:37:07.628Z,9.457240
2022-11-17T06:38:07.636Z,9.457176
2022-11-17T06:39:07.606Z,9.457237
2022-11-17T06:40:07.612Z,9.457220
2022-11-17T06:41:11.827Z,9.457497
2022-11-17T06:42:08.603Z,9.457212
2022-11-17T06:43:07.619Z,9.457161
2022-11-17T06:44:07.559Z,9.457179
2022-11-17T06:45:07.553Z,9.457213
2022-11-17T06:46:07.543Z,9.457152
2022-11-17T06:47:07.615Z,9.457193
2022-11-17T06:48:07.539Z,9.457234
2022-11-17T06:49:07.507Z,9.457314
2022-11-17T06:50:07.490Z,9.457252
2022-11-17T06:51:07.488Z,9.457209
2022-11-17T06:52:07.479Z,9.457236
2022-11-17T06:53:07.486Z,9.457224
2022-11-17T06:54:07.461Z,9.457201
2022-11-17T06:55:07.447Z,9.457199
2022-11-17T06:56:07.442Z,9.457160
2022-11-17T06:57:07.430Z,9.457187
2022-11-17T06:58:07.426Z,9.457170
2022-11-17T06:59:07.409Z,9.457144
2022-11-17T07:00:07.444Z,9.457062
2022-11-17T07:01:07.391Z,9.457088
2022-11-17T07:02:07.364Z,9.457119
2022-11-17T07:03:07.467Z,9.457134
2022-11-17T07:04:07.364Z,9.457108
2022-11-17T07:05:07.347Z,9.457072
2022-11-17T07:06:07.330Z,9.457050
2022-11-17T07:07:07.405Z,9.457003
2022-11-17T07:08:08.367Z,9.457073
2022-11-17T07:09:08.306Z,9.457065
2022-11-17T07:10:07.293Z,9.457094
2022-11-17T07:11:07.299Z,9.457084
2022-11-17T07:12:07.273Z,9.457245
2022-11-17T07:13:07.279Z,9.457130
2022-11-17T07:14:07.250Z,9.457121
2022-11-17T07:15:07.238Z,9.457253
2022-11-17T07:16:08.230Z,9.457157
2022-11-17T07:17:07.224Z,9.457111
2022-11-17T07:18:07.198Z,9.457354
2022-11-17T07:19:07.381Z,9.457222
2022-11-17T07:20:07.186Z,9.457157
2022-11-17T07:21:07.240Z,9.457140
2022-11-17T07:22:07.153Z,9.457043
2022-11-17T07:23:07.159Z,9.457093
2022-11-17T07:24:07.176Z,9.457067
2022-11-17T07:25:07.205Z,9.457051
2022-11-17T07:26:07.181Z,9.457211
2022-11-17T07:27:07.124Z,9.457130
2022-11-17T07:28:07.103Z,9.456850
2022-11-17T07:29:07.121Z,9.457172
2022-11-17T07:30:07.078Z,9.457242
2022-11-17T07:31:07.065Z,9.457158
2022-11-17T07:32:07.067Z,9.457222
2022-11-17T07:33:07.048Z,9.457083
2022-11-17T07:34:07.055Z,9.457128
2022-11-17T07:35:07.116Z,9.457253
2022-11-17T07:36:07.029Z,9.457308
2022-11-17T07:37:07.010Z,9.457321
2022-11-17T07:38:06.995Z,9.457223
2022-11-17T07:39:07.010Z,9.457335
2022-11-17T07:40:06.986Z,9.457356
2022-11-17T07:41:06.993Z,9.457397
2022-11-17T07:42:06.956Z,9.457382
2022-11-17T07:43:06.949Z,9.457215
2022-11-17T07:44:06.964Z,9.457315
2022-11-17T07:45:06.925Z,9.457221
2022-11-17T07:46:06.905Z,9.457303
2022-11-17T07:47:06.912Z,9.457248
2022-11-17T07:48:06.896Z,9.457376
2022-11-17T07:49:06.905Z,9.457260
2022-11-17T07:50:06.869Z,9.457306
2022-11-17T07:51:06.944Z,9.457313
2022-11-17T07:52:06.854Z,9.457203
2022-11-17T07:53:06.842Z,9.457293
2022-11-17T07:54:06.842Z,9.457269
2022-11-17T07:55:06.822Z,9.457346
2022-11-17T07:56:06.816Z,9.457292
2022-11-17T07:57:06.803Z,9.457315
2022-11-17T07:58:06.791Z,9.457247
2022-11-17T07:59:06.801Z,9.457253
2022-11-17T08:00:06.775Z,9.457238
2022-11-17T08:01:06.832Z,9.457294
2022-11-17T08:02:06.735Z,9.457285
2022-11-17T08:03:06.741Z,9.457265
2022-11-17T08:04:06.840Z,9.457200
2022-11-17T08:05:06.717Z,9.457273
2022-11-17T08:06:06.708Z,9.457241
2022-11-17T08:07:06.746Z,9.457211
2022-11-17T08:08:06.694Z,9.457316
2022-11-17T08:09:06.701Z,9.457307
2022-11-17T08:10:06.679Z,9.457234
2022-11-17T08:11:06.656Z,9.457193
2022-11-17T08:12:06.653Z,9.457428
2022-11-17T08:13:06.646Z,9.457264
2022-11-17T08:14:06.642Z,9.457291
2022-11-17T08:15:06.627Z,9.457331
2022-11-17T08:16:06.609Z,9.457166
2022-11-17T08:17:06.602Z,9.457317
2022-11-17T08:18:06.594Z,9.457314
2022-11-17T08:19:06.592Z,9.457243
2022-11-17T08:20:06.566Z,9.457293
2022-11-17T08:21:06.557Z,9.457315
2022-11-17T08:22:06.546Z,9.457242
2022-11-17T08:23:06.627Z,9.457274
2022-11-17T08:24:06.551Z,9.457283
2022-11-17T08:25:06.525Z,9.457397
2022-11-17T08:26:06.511Z,9.457150
2022-11-17T08:27:06.505Z,9.457089
2022-11-17T08:28:06.505Z,9.457124
2022-11-17T08:29:06.510Z,9.457369
2022-11-17T08:30:06.470Z,9.457042
2022-11-17T08:31:06.473Z,9.457129
2022-11-17T08:32:06.452Z,9.457662
2022-11-17T08:33:06.444Z,9.458138
2022-11-17T08:34:06.446Z,9.458462
2022-11-17T08:35:06.425Z,9.459006
2022-11-17T08:36:06.399Z,9.458807
2022-11-17T08:37:06.400Z,9.458468
2022-11-17T08:38:06.392Z,9.457887
2022-11-17T08:39:06.496Z,9.457587
2022-11-17T08:40:06.382Z,9.457930
2022-11-17T08:41:06.355Z,9.457640
2022-11-17T08:42:06.347Z,9.458068
2022-11-17T08:43:06.339Z,9.457981
2022-11-17T08:44:06.351Z,9.457977
2022-11-17T08:45:06.328Z,9.458129
2022-11-17T08:46:06.340Z,9.458118
2022-11-17T08:47:06.302Z,9.458035
2022-11-17T08:48:06.291Z,9.457511
2022-11-17T08:49:06.301Z,9.457298
2022-11-17T08:50:06.262Z,9.457038
2022-11-17T08:51:06.262Z,9.456472
2022-11-17T08:52:06.245Z,9.456533
2022-11-17T08:53:06.238Z,9.456361
2022-11-17T08:54:06.240Z,9.457023
2022-11-17T08:55:06.243Z,9.457859
2022-11-17T08:56:06.213Z,9.457573
2022-11-17T08:57:06.274Z,9.457264
2022-11-17T08:58:06.186Z,9.457093
2022-11-17T08:59:06.204Z,9.457082
2022-11-17T09:00:06.166Z,9.457155
2022-11-17T09:01:06.286Z,9.456974
2022-11-17T09:02:06.143Z,9.457015
2022-11-17T09:03:06.138Z,9.457195
2022-11-17T09:04:06.151Z,9.457073
2022-11-17T09:05:06.113Z,9.457073
2022-11-17T09:06:06.103Z,9.457414
2022-11-17T09:07:06.154Z,9.457148
2022-11-17T09:08:22.734Z,9.457144
2022-11-17T09:09:08.103Z,9.456959
2022-11-17T09:10:06.066Z,9.456917
2022-11-17T09:11:06.145Z,9.457504
2022-11-17T09:12:06.957Z,9.457417
2022-11-17T09:13:06.035Z,9.457479
2022-11-17T09:14:06.048Z,9.457479
2022-11-17T09:15:06.036Z,9.457479
2022-11-17T09:16:06.003Z,9.457479
2022-11-17T09:17:05.997Z,9.457258
2022-11-17T09:18:05.983Z,9.457259
2022-11-17T09:19:06.004Z,9.457353
2022-11-17T09:20:05.964Z,9.457405
2022-11-17T09:21:05.954Z,9.457399
2022-11-17T09:22:05.953Z,9.457309
2022-11-17T09:23:05.936Z,9.457310
2022-11-17T09:24:05.947Z,9.457163
2022-11-17T09:25:10.375Z,9.457170
2022-11-17T09:26:06.905Z,9.457133
2022-11-17T09:27:05.895Z,9.457293
2022-11-17T09:28:05.886Z,9.457211
2022-11-17T09:29:05.893Z,9.457131
2022-11-17T09:30:05.869Z,9.457087
2022-11-17T09:31:05.922Z,9.457200
2022-11-17T09:32:05.848Z,9.457166
2022-11-17T09:33:05.828Z,9.457228
2022-11-17T09:34:06.206Z,9.457335
2022-11-17T09:35:05.815Z,9.457309
2022-11-17T09:36:05.810Z,9.457245
2022-11-17T09:37:05.791Z,9.457271
2022-11-17T09:38:05.788Z,9.457253
2022-11-17T09:39:05.808Z,9.457243
2022-11-17T09:40:05.770Z,9.457247
2022-11-17T09:41:05.748Z,9.457231
2022-11-17T09:42:05.766Z,9.457279
2022-11-17T09:43:05.818Z,9.457252
2022-11-17T09:44:05.744Z,9.457293
2022-11-17T09:45:05.711Z,9.457193
2022-11-17T09:46:07.685Z,9.457251
2022-11-17T09:47:06.704Z,9.457217
2022-11-17T09:48:33.691Z,9.457191
2022-11-17T09:49:07.703Z,9.457150
2022-11-17T09:50:05.750Z,9.457233
2022-11-17T09:51:05.680Z,9.457174
2022-11-17T09:52:05.655Z,9.457275
2022-11-17T09:53:05.639Z,9.457218
2022-11-17T09:54:05.649Z,9.457271
2022-11-17T09:55:05.628Z,9.457173
2022-11-17T09:56:05.609Z,9.457211
2022-11-17T09:57:05.603Z,9.457264
2022-11-17T09:58:05.589Z,9.457315
2022-11-17T09:59:05.590Z,9.457301
2022-11-17T10:00:06.570Z,9.457233
2022-11-17T10:01:05.561Z,9.457327
2022-11-17T10:02:05.569Z,9.457173
2022-11-17T10:03:05.539Z,9.457315
2022-11-17T10:04:05.549Z,9.457186
2022-11-17T10:05:05.516Z,9.457292
2022-11-17T10:06:05.517Z,9.457211
2022-11-17T10:07:05.545Z,9.457276
2022-11-17T10:08:05.535Z,9.457262
2022-11-17T10:09:05.551Z,9.457317
2022-11-17T10:10:06.470Z,9.457281
2022-11-17T10:11:06.020Z,9.457317
2022-11-17T10:12:05.467Z,9.457288
2022-11-17T10:13:05.514Z,9.457284
2022-11-17T10:14:05.460Z,9.457334
2022-11-17T10:15:05.494Z,9.457265
2022-11-17T10:16:05.399Z,9.457311
2022-11-17T10:17:05.397Z,9.457316
2022-11-17T10:18:05.382Z,9.457414
2022-11-17T10:19:05.398Z,9.457378
2022-11-17T10:20:05.370Z,9.457364
2022-11-17T10:21:05.362Z,9.457338
2022-11-17T10:22:05.356Z,9.457346
2022-11-17T10:23:05.457Z,9.457408
2022-11-17T10:24:05.389Z,9.457318
2022-11-17T10:25:05.459Z,9.457331
2022-11-17T10:26:05.344Z,9.457367
2022-11-17T10:27:05.360Z,9.457332
2022-11-17T10:28:05.384Z,9.457333
2022-11-17T10:29:08.561Z,9.457293
2022-11-17T10:30:06.275Z,9.457296
2022-11-17T10:31:05.408Z,9.457361
2022-11-17T10:32:05.356Z,9.457380
2022-11-17T10:33:05.396Z,9.457339
2022-11-17T10:34:05.355Z,9.457141
2022-11-17T10:35:05.212Z,9.457281
2022-11-17T10:36:05.205Z,9.457362
2022-11-17T10:37:05.198Z,9.457428
2022-11-17T10:38:05.182Z,9.457377
2022-11-17T10:39:05.322Z,9.457430
2022-11-17T10:40:05.175Z,9.457344
2022-11-17T10:41:05.160Z,9.457421
2022-11-17T10:42:05.150Z,9.457376
2022-11-17T10:43:05.139Z,9.457348
2022-11-17T10:44:05.157Z,9.457348
2022-11-17T10:45:05.123Z,9.457299
2022-11-17T10:46:05.109Z,9.457335
2022-11-17T10:47:05.088Z,9.457336
2022-11-17T10:48:06.089Z,9.457306
2022-11-17T10:49:05.163Z,9.457306
2022-11-17T10:50:05.111Z,9.457286
2022-11-17T10:51:05.065Z,9.457387
2022-11-17T10:52:05.053Z,9.457268
2022-11-17T10:53:08.725Z,9.457298
2022-11-17T10:54:06.023Z,9.457345
2022-11-17T10:55:05.041Z,9.457297
2022-11-17T10:56:05.008Z,9.457332
2022-11-17T10:57:05.002Z,9.457345
2022-11-17T10:58:05.005Z,9.457306
2022-11-17T10:59:04.975Z,9.457350
2022-11-17T11:00:04.997Z,9.457393
2022-11-17T11:01:04.996Z,9.457407
2022-11-17T11:02:04.940Z,9.457336
2022-11-17T11:03:04.952Z,9.457360
2022-11-17T11:04:04.933Z,9.457326
2022-11-17T11:05:04.940Z,9.457262
2022-11-17T11:06:04.930Z,9.457282
2022-11-17T11:07:05.003Z,9.457299
2022-11-17T11:08:04.925Z,9.457277
2022-11-17T11:09:04.915Z,9.457295
2022-11-17T11:10:04.921Z,9.457265
2022-11-17T11:11:04.843Z,9.457295
2022-11-17T11:12:05.847Z,9.457238
2022-11-17T11:13:04.835Z,9.457307
2022-11-17T11:14:04.820Z,9.457290
2022-11-17T11:15:04.879Z,9.457326
2022-11-17T11:16:04.812Z,9.457373
2022-11-17T11:17:04.801Z,9.457261
2022-11-17T11:18:04.775Z,9.457308
2022-11-17T11:19:04.780Z,9.457366
2022-11-17T11:20:04.783Z,9.457417
2022-11-17T11:21:04.804Z,9.457445
2022-11-17T11:22:04.771Z,9.457479
2022-11-17T11:23:04.764Z,9.457317
2022-11-17T11:24:04.776Z,9.457355
2022-11-17T11:25:04.811Z,9.457429
2022-11-17T11:26:04.760Z,9.457323
2022-11-17T11:27:04.764Z,9.457379
2022-11-17T11:28:04.799Z,9.457317
2022-11-17T11:29:04.709Z,9.457372
2022-11-17T11:30:04.693Z,9.457176
2022-11-17T11:31:04.720Z,9.457281
2022-11-17T11:32:04.647Z,9.457212
2022-11-17T11:33:04.632Z,9.457294
2022-11-17T11:34:04.623Z,9.457402
2022-11-17T11:35:04.633Z,9.457215
2022-11-17T11:36:04.606Z,9.457031
2022-11-17T11:37:04.594Z,9.456931
2022-11-17T11:38:04.574Z,9.456914
2022-11-17T11:39:04.576Z,9.457101
2022-11-17T11:40:04.605Z,9.457193
2022-11-17T11:41:04.557Z,9.457110
2022-11-17T11:42:07.940Z,9.457266
2022-11-17T11:43:04.527Z,9.457078
2022-11-17T11:44:04.524Z,9.457219
2022-11-17T11:45:04.533Z,9.457324
2022-11-17T11:46:04.491Z,9.457269
2022-11-17T11:47:04.488Z,9.457296
2022-11-17T11:48:04.486Z,9.457328
2022-11-17T11:49:04.470Z,9.457239
2022-11-17T11:50:04.479Z,9.457157
2022-11-17T11:51:04.569Z,9.457251
2022-11-17T11:52:04.449Z,9.457258
2022-11-17T11:53:04.433Z,9.457337
2022-11-17T11:54:04.420Z,9.457323
2022-11-17T11:55:04.451Z,9.457413
2022-11-17T11:56:04.404Z,9.457308
2022-11-17T11:57:04.399Z,9.457259
2022-11-17T11:58:04.376Z,9.457323
2022-11-17T11:59:04.367Z,9.457190
2022-11-17T12:00:05.084Z,9.457248